Wednesday, December 12, 2018, 11:16 PM EST
Back to Local

KAFN, Jaffrey Muni-silver Ranch

Location: Jaffrey, NH, United States Lat: 42.8
Local Time: 11:16 PM EST ( 4:16 GMT) Lon: -72
Time Zone: US/Eastern Elev: 1040 ft

Show me the last for .
Show Decoded

2018-12-12 22:52 METAR KAFN 130352Z AUTO 00000KT 10SM CLR M12/M14 A3027 RMK AO2 SLP272 T11221144
                 =
2018-12-12 21:52 METAR KAFN 130252Z AUTO 00000KT 10SM CLR M11/M14 A3025 RMK AO2 SLP265 T11111139
                 53020 =
2018-12-12 20:52 METAR KAFN 130152Z AUTO 00000KT 10SM CLR M08/M13 A3022 RMK AO2 SLP254 T10831133
                 =
2018-12-12 19:52 METAR KAFN 130052Z AUTO 00000KT 10SM CLR M07/M13 A3019 RMK AO2 SLP246 T10721133
                 =
2018-12-12 18:52 METAR KAFN 122352Z AUTO 00000KT 10SM CLR M06/M13 A3019 RMK AO2 SLP243 T10611128
                 11006 21067 51033 =
2018-12-12 17:52 METAR KAFN 122252Z AUTO 00000KT 10SM CLR M05/M12 A3016 RMK AO2 SLP232 T10501122
                 =
2018-12-12 16:52 METAR KAFN 122152Z AUTO 33006KT 10SM CLR M03/M12 A3012 RMK AO2 SLP220 T10331117
                 =
2018-12-12 15:52 METAR KAFN 122052Z AUTO 32005KT 10SM CLR M03/M10 A3009 RMK AO2 SLP209 T10281100
                 53023 =
2018-12-12 14:52 METAR KAFN 121952Z AUTO VRB05KT 10SM SCT037 M01/M09 A3005 RMK AO2 SLP195
                 T10111094 =
2018-12-12 13:52 METAR KAFN 121852Z AUTO 33006KT 10SM BKN041 M01/M09 A3003 RMK AO2 SLP189
                 T10111094 =
2018-12-12 12:52 METAR KAFN 121752Z AUTO 33006KT 10SM OVC037 M01/M09 A3002 RMK AO2 SLP183
                 T10111089 11006 21033 52006 =
2018-12-12 11:52 METAR KAFN 121652Z AUTO 33008KT 290V010 10SM BKN041 BKN048 M01/M09 A3001 RMK AO2
                 SLP181 T10061094 =
2018-12-12 10:52 METAR KAFN 121552Z AUTO 32008G18KT 270V350 10SM SCT029 BKN037 M02/M08 A3000 RMK
                 AO2 SLP179 T10171083 =
2018-12-12 09:52 METAR KAFN 121452Z AUTO 35009KT 10SM SCT055 M02/M08 A3000 RMK AO2 SLP177
                 T10171078 51024 =
2018-12-12 08:52 METAR KAFN 121352Z AUTO 32007KT 280V350 10SM FEW060 M03/M08 A2998 RMK AO2 SLP170
                 T10281078 =
2018-12-12 07:52 METAR KAFN 121252Z AUTO 32006KT 10SM CLR M03/M07 A2995 RMK AO2 SLP160 T10331072
                 =
2018-12-12 06:52 METAR KAFN 121152Z AUTO 31008G16KT 280V350 10SM OVC060 M03/M07 A2993 RMK AO2
                 SLP152 T10281072 11028 21067 53019 =
2018-12-12 05:52 METAR KAFN 121052Z AUTO VRB04KT 10SM OVC065 M03/M07 A2990 RMK AO2 SLP145
                 T10331072 =
2018-12-12 04:52 METAR KAFN 120952Z AUTO 00000KT 10SM FEW044 OVC075 M06/M08 A2988 RMK AO2 SLP139
                 T10611083 =
2018-12-12 03:52 METAR KAFN 120852Z AUTO 00000KT 10SM OVC070 M07/M08 A2987 RMK AO2 SLP134
                 T10671083 51005 =
2018-12-12 02:52 METAR KAFN 120752Z AUTO 00000KT 10SM OVC070 M06/M09 A2987 RMK AO2 SLP133
                 T10611089 =
2018-12-12 01:52 METAR KAFN 120652Z AUTO 00000KT 10SM CLR M05/M09 A2986 RMK AO2 SLP128 T10501089
                 =
2018-12-12 00:52 METAR KAFN 120552Z AUTO 00000KT 10SM CLR M04/M09 A2985 RMK AO2 SLP127 T10441089
                 11028 21044 56012 =
2018-12-11 23:52 METAR KAFN 120452Z AUTO 00000KT 10SM FEW046 BKN120 M04/M08 A2986 RMK AO2 SLP129
                 T10391083 410061144 =

Support USWX by starting your Amazon purchase here.